createdAt,value
2023-04-30T00:02:25.651Z,100983.47
2023-04-30T00:04:54.023Z,100975.47
2023-04-30T00:07:23.962Z,100981.22
2023-04-30T00:09:52.431Z,100975.84
2023-04-30T00:12:23.488Z,100978.41
2023-04-30T00:14:52.207Z,100977.81
2023-04-30T00:17:23.246Z,100978.53
2023-04-30T00:19:52.799Z,100981.28
2023-04-30T00:22:21.160Z,100978.88
2023-04-30T00:24:51.120Z,100980.53
2023-04-30T00:27:19.665Z,100990.50
2023-04-30T00:29:48.463Z,100989.97
2023-04-30T00:32:16.740Z,100983.69
2023-04-30T00:34:44.992Z,100990.59
2023-04-30T00:37:13.215Z,100985.00
2023-04-30T00:39:42.045Z,100988.69
2023-04-30T00:42:11.707Z,100989.63
2023-04-30T00:44:40.148Z,101000.16
2023-04-30T00:47:08.468Z,100991.47
2023-04-30T00:49:36.699Z,100991.28
2023-04-30T00:52:05.008Z,100984.44
2023-04-30T00:54:33.329Z,100980.88
2023-04-30T00:57:01.726Z,101000.47
2023-04-30T00:59:31.821Z,100991.78
2023-04-30T01:02:00.370Z,100993.59
2023-04-30T01:04:29.809Z,100993.22
2023-04-30T01:06:58.767Z,100992.47
2023-04-30T01:09:27.009Z,100991.72
2023-04-30T01:12:06.332Z,100991.16
2023-04-30T01:14:44.621Z,100989.09
2023-04-30T01:17:22.950Z,100999.25
2023-04-30T01:19:51.971Z,100992.03
2023-04-30T01:22:33.566Z,100988.53
2023-04-30T01:25:22.573Z,100985.38
2023-04-30T01:28:11.157Z,100992.09
2023-04-30T01:30:41.749Z,100990.66
2023-04-30T01:33:10.049Z,100989.94
2023-04-30T01:35:58.003Z,100988.03
2023-04-30T01:38:42.526Z,100989.19
2023-04-30T01:41:17.433Z,100982.41
2023-04-30T01:43:56.215Z,100983.09
2023-04-30T01:46:30.070Z,100981.28
2023-04-30T01:49:10.981Z,100978.16
2023-04-30T01:51:43.503Z,100973.13
2023-04-30T01:54:21.821Z,100972.91
2023-04-30T01:56:58.592Z,100983.63
2023-04-30T01:59:28.432Z,100984.44
2023-04-30T02:01:57.338Z,100982.56
2023-04-30T02:04:25.745Z,100982.19
2023-04-30T02:06:54.018Z,100989.97
2023-04-30T02:09:24.433Z,100998.84
2023-04-30T02:11:53.492Z,100991.59
2023-04-30T02:14:21.907Z,100985.50
2023-04-30T02:16:55.466Z,100982.69
2023-04-30T02:19:23.530Z,100988.41
2023-04-30T02:21:51.974Z,100993.59
2023-04-30T02:24:20.109Z,100986.34
2023-04-30T02:26:48.263Z,100986.22
2023-04-30T02:29:17.481Z,100993.03
2023-04-30T02:31:46.274Z,100994.72
2023-04-30T02:34:15.744Z,100989.25
2023-04-30T02:36:43.967Z,100989.16
2023-04-30T02:39:12.439Z,100987.91
2023-04-30T02:41:40.880Z,100990.63
2023-04-30T02:44:09.392Z,100986.56
2023-04-30T02:46:37.496Z,100986.16
2023-04-30T02:49:05.819Z,100992.09
2023-04-30T02:51:35.551Z,100988.41
2023-04-30T02:54:03.609Z,100981.75
2023-04-30T02:56:31.798Z,100983.78
2023-04-30T02:58:59.942Z,100982.81
2023-04-30T03:01:28.349Z,100986.88
2023-04-30T03:03:56.602Z,100989.47
2023-04-30T03:06:25.397Z,100994.31
2023-04-30T03:08:57.305Z,100991.53
2023-04-30T03:11:25.591Z,100992.81
2023-04-30T03:13:54.119Z,100992.59
2023-04-30T03:16:22.973Z,100990.97
2023-04-30T03:18:51.296Z,100991.13
2023-04-30T03:21:19.623Z,100985.78
2023-04-30T03:23:47.639Z,100985.38
2023-04-30T03:26:18.482Z,100987.41
2023-04-30T03:28:46.700Z,100989.47
2023-04-30T03:31:14.937Z,100980.38
2023-04-30T03:33:43.390Z,100986.09
2023-04-30T03:36:11.796Z,100982.97
2023-04-30T03:38:39.882Z,100979.09
2023-04-30T03:41:08.523Z,100974.25
2023-04-30T03:43:38.765Z,100978.91
2023-04-30T03:46:09.343Z,100982.97
2023-04-30T03:48:37.799Z,100982.78
2023-04-30T03:51:06.105Z,100982.78
2023-04-30T03:53:35.960Z,100989.78
2023-04-30T03:56:04.460Z,100989.97
2023-04-30T03:58:34.900Z,100986.44
2023-04-30T04:01:04.937Z,100987.75
2023-04-30T04:03:35.590Z,100977.97
2023-04-30T04:06:05.423Z,100982.00
2023-04-30T04:08:35.097Z,100988.06
2023-04-30T04:11:03.668Z,100988.81
2023-04-30T04:13:32.698Z,100985.72
2023-04-30T04:16:02.139Z,100989.97
2023-04-30T04:18:31.768Z,100987.34
2023-04-30T04:21:01.923Z,100993.63
2023-04-30T04:23:31.760Z,100993.09
2023-04-30T04:26:00.225Z,101005.13
2023-04-30T04:28:28.631Z,100996.03
2023-04-30T04:30:57.513Z,100991.84
2023-04-30T04:33:26.446Z,100992.22
2023-04-30T04:35:57.902Z,101002.78
2023-04-30T04:38:27.188Z,101003.28
2023-04-30T04:40:59.312Z,101006.59
2023-04-30T04:43:27.786Z,100999.53
2023-04-30T04:45:56.115Z,101010.44
2023-04-30T04:48:24.458Z,101009.00
2023-04-30T04:50:53.294Z,101002.91
2023-04-30T04:53:26.868Z,101008.06
2023-04-30T04:55:55.224Z,101007.16
2023-04-30T04:58:23.542Z,101009.06
2023-04-30T05:00:52.877Z,101006.09
2023-04-30T05:03:22.849Z,101009.28
2023-04-30T05:05:51.616Z,101005.38
2023-04-30T05:08:20.020Z,101015.22
2023-04-30T05:10:51.254Z,101011.50
2023-04-30T05:13:19.895Z,101008.94
2023-04-30T05:15:48.539Z,101008.19
2023-04-30T05:18:17.951Z,101000.47
2023-04-30T05:20:46.222Z,101002.31
2023-04-30T05:23:14.387Z,101007.16
2023-04-30T05:25:42.976Z,101007.72
2023-04-30T05:28:13.035Z,101010.28
2023-04-30T05:30:41.751Z,101005.50
2023-04-30T05:33:09.868Z,101008.84
2023-04-30T05:35:38.219Z,101002.94
2023-04-30T05:38:06.601Z,101010.91
2023-04-30T05:40:34.854Z,101009.03
2023-04-30T05:43:03.401Z,101018.72
2023-04-30T05:45:33.182Z,101011.88
2023-04-30T05:48:02.392Z,101013.38
2023-04-30T05:50:30.752Z,101026.53
2023-04-30T05:52:58.974Z,101019.69
2023-04-30T05:55:27.730Z,101026.56
2023-04-30T05:57:56.303Z,101014.88
2023-04-30T06:00:27.228Z,101017.84
2023-04-30T06:02:56.780Z,101014.13
2023-04-30T06:05:25.205Z,101019.88
2023-04-30T06:07:53.726Z,101027.63
2023-04-30T06:10:22.385Z,101028.78
2023-04-30T06:12:51.448Z,101017.66
2023-04-30T06:15:19.954Z,101020.22
2023-04-30T06:17:48.821Z,101014.09
2023-04-30T06:20:19.890Z,101026.41
2023-04-30T06:22:48.103Z,101031.69
2023-04-30T06:25:16.582Z,101024.25
2023-04-30T06:27:46.317Z,101028.41
2023-04-30T06:30:15.605Z,101025.41
2023-04-30T06:32:44.059Z,101026.94
2023-04-30T06:35:12.324Z,101026.66
2023-04-30T06:37:41.982Z,101030.38
2023-04-30T06:40:10.400Z,101029.56
2023-04-30T06:42:41.445Z,101025.16
2023-04-30T06:45:11.315Z,101024.53
2023-04-30T06:47:40.067Z,101030.22
2023-04-30T06:50:09.825Z,101034.72
2023-04-30T06:52:37.992Z,101037.03
2023-04-30T06:55:09.463Z,101034.44
2023-04-30T06:57:38.236Z,101037.53
2023-04-30T07:00:08.916Z,101038.56
2023-04-30T07:02:37.461Z,101037.44
2023-04-30T07:05:06.392Z,101040.53
2023-04-30T07:07:34.795Z,101042.13
2023-04-30T07:10:03.720Z,101041.31
2023-04-30T07:12:33.394Z,101033.69
2023-04-30T07:15:01.813Z,101036.63
2023-04-30T07:17:32.324Z,101033.06
2023-04-30T07:20:00.707Z,101029.16
2023-04-30T07:22:28.829Z,101043.69
2023-04-30T07:24:58.402Z,101035.72
2023-04-30T07:27:27.368Z,101043.03
2023-04-30T07:29:57.091Z,101037.66
2023-04-30T07:32:27.080Z,101031.19
2023-04-30T07:34:56.765Z,101039.78
2023-04-30T07:37:25.600Z,101039.44
2023-04-30T07:39:54.460Z,101042.13
2023-04-30T07:42:23.268Z,101034.88
2023-04-30T07:45:04.345Z,101035.81
2023-04-30T07:47:34.056Z,101038.03
2023-04-30T07:50:02.657Z,101031.09
2023-04-30T07:52:30.809Z,101033.56
2023-04-30T07:54:59.268Z,101039.81
2023-04-30T07:57:27.989Z,101038.31
2023-04-30T07:59:56.490Z,101037.44
2023-04-30T08:02:25.082Z,101032.69
2023-04-30T08:04:54.638Z,101034.38
2023-04-30T08:07:22.741Z,101042.22
2023-04-30T08:09:50.812Z,101035.25
2023-04-30T08:12:19.204Z,101035.41
2023-04-30T08:14:47.869Z,101040.66
2023-04-30T08:17:16.525Z,101039.81
2023-04-30T08:19:45.034Z,101038.44
2023-04-30T08:22:15.140Z,101031.78
2023-04-30T08:24:43.800Z,101036.31
2023-04-30T08:27:11.986Z,101039.78
2023-04-30T08:29:40.519Z,101034.94
2023-04-30T08:32:11.848Z,101035.53
2023-04-30T08:34:41.699Z,101037.25
2023-04-30T08:37:09.908Z,101027.78
2023-04-30T08:39:39.752Z,101033.38
2023-04-30T08:42:10.693Z,101033.50
2023-04-30T08:44:43.626Z,101033.69
2023-04-30T08:47:14.497Z,101032.28
2023-04-30T08:49:45.434Z,101024.75
2023-04-30T08:52:13.843Z,101038.75
2023-04-30T08:54:46.346Z,101031.19
2023-04-30T08:57:14.817Z,101034.09
2023-04-30T08:59:47.628Z,101024.59
2023-04-30T09:02:16.062Z,101023.91
2023-04-30T09:04:44.489Z,101023.63
2023-04-30T09:07:14.548Z,101025.75
2023-04-30T09:09:46.844Z,101021.28
2023-04-30T09:12:19.355Z,101017.78
2023-04-30T09:15:03.848Z,101024.91
2023-04-30T09:17:32.796Z,101013.03
2023-04-30T09:20:09.207Z,101024.72
2023-04-30T09:22:38.828Z,101018.50
2023-04-30T09:25:11.292Z,101020.47
2023-04-30T09:27:40.686Z,101020.47
2023-04-30T09:30:11.250Z,100998.25
2023-04-30T09:32:56.306Z,101016.63
2023-04-30T09:35:31.078Z,101004.38
2023-04-30T09:38:02.018Z,100997.84
2023-04-30T09:40:39.149Z,100995.75
2023-04-30T09:43:07.948Z,101004.81
2023-04-30T09:45:46.599Z,101003.88
2023-04-30T09:48:18.032Z,101006.84
2023-04-30T09:50:48.775Z,101007.50
2023-04-30T09:53:18.840Z,101004.53
2023-04-30T09:55:55.696Z,101002.97
2023-04-30T09:58:29.144Z,100989.72
2023-04-30T10:01:00.741Z,100983.84
2023-04-30T10:03:29.382Z,100988.97
2023-04-30T10:05:59.576Z,100984.03
2023-04-30T10:08:29.994Z,100982.16
2023-04-30T10:11:03.924Z,100994.22
2023-04-30T10:13:34.495Z,100979.88
2023-04-30T10:16:08.774Z,100977.09
2023-04-30T10:18:43.404Z,100980.50
2023-04-30T10:21:14.563Z,100984.97
2023-04-30T10:23:43.797Z,100975.59
2023-04-30T10:26:14.092Z,100972.59
2023-04-30T10:28:43.434Z,100966.78
2023-04-30T10:31:13.825Z,100960.97
2023-04-30T10:33:50.664Z,100957.50
2023-04-30T10:36:27.231Z,100963.91
2023-04-30T10:38:56.160Z,100964.13
2023-04-30T10:41:27.363Z,100960.09
2023-04-30T10:43:59.037Z,100962.56
2023-04-30T10:46:29.698Z,100953.59
2023-04-30T10:48:58.319Z,100952.28
2023-04-30T10:51:46.010Z,100954.72
2023-04-30T10:54:18.690Z,100949.47
2023-04-30T10:56:53.541Z,100946.16
2023-04-30T10:59:24.219Z,100941.47
2023-04-30T11:02:00.900Z,100937.72
2023-04-30T11:04:29.431Z,100944.63
2023-04-30T11:07:08.314Z,100931.09
2023-04-30T11:09:39.312Z,100921.34
2023-04-30T11:12:17.080Z,100919.56
2023-04-30T11:14:46.650Z,100919.22
2023-04-30T11:17:22.868Z,100914.16
2023-04-30T11:19:52.832Z,100928.53
2023-04-30T11:22:24.647Z,100922.88
2023-04-30T11:25:05.328Z,100922.25
2023-04-30T11:27:36.450Z,100911.66
2023-04-30T11:30:11.688Z,100910.16
2023-04-30T11:32:41.325Z,100921.94
2023-04-30T11:35:10.451Z,100909.88
2023-04-30T11:37:40.581Z,100909.81
2023-04-30T11:40:11.561Z,100907.59
2023-04-30T11:42:46.104Z,100903.91
2023-04-30T11:45:18.083Z,100904.44
2023-04-30T11:47:47.728Z,100902.50
2023-04-30T11:50:17.727Z,100894.59
2023-04-30T11:52:50.764Z,100897.53
2023-04-30T11:55:20.883Z,100887.59
2023-04-30T11:57:55.082Z,100887.44
2023-04-30T12:00:28.830Z,100881.81
2023-04-30T12:02:58.544Z,100887.06
2023-04-30T12:05:28.502Z,100877.66
2023-04-30T12:07:58.250Z,100884.38
2023-04-30T12:10:27.305Z,100884.63
2023-04-30T12:12:56.786Z,100889.53
2023-04-30T12:15:27.554Z,100881.38
2023-04-30T12:17:58.115Z,100879.66
2023-04-30T12:20:28.542Z,100882.53
2023-04-30T12:22:58.151Z,100881.34
2023-04-30T12:25:29.229Z,100869.84
2023-04-30T12:28:00.926Z,100871.13
2023-04-30T12:30:29.309Z,100863.13
2023-04-30T12:33:04.770Z,100863.34
2023-04-30T12:35:33.411Z,100858.66
2023-04-30T12:38:07.402Z,100856.19
2023-04-30T12:40:37.498Z,100868.84
2023-04-30T12:43:17.395Z,100857.59
2023-04-30T12:45:52.289Z,100863.06
2023-04-30T12:48:30.583Z,100846.25
2023-04-30T12:51:07.995Z,100854.09
2023-04-30T12:53:46.373Z,100835.84
2023-04-30T12:56:24.936Z,100842.75
2023-04-30T12:58:55.633Z,100837.66
2023-04-30T13:01:25.332Z,100829.59
2023-04-30T13:03:58.935Z,100832.22
2023-04-30T13:06:27.603Z,100836.03
2023-04-30T13:08:59.159Z,100833.69
2023-04-30T13:11:30.580Z,100823.34
2023-04-30T13:14:02.937Z,100818.38
2023-04-30T13:16:32.227Z,100816.00
2023-04-30T13:19:00.447Z,100818.13
2023-04-30T13:21:29.964Z,100820.38
2023-04-30T13:23:59.882Z,100811.53
2023-04-30T13:26:34.628Z,100810.47
2023-04-30T13:29:07.314Z,100804.06
2023-04-30T13:31:36.375Z,100811.34
2023-04-30T13:34:10.076Z,100803.97
2023-04-30T13:36:43.988Z,100797.47
2023-04-30T13:39:17.901Z,100796.72
2023-04-30T13:41:48.237Z,100792.78
2023-04-30T13:44:19.224Z,100787.47
2023-04-30T13:46:50.183Z,100793.53
2023-04-30T13:49:18.676Z,100786.44
2023-04-30T13:51:47.157Z,100789.81
2023-04-30T13:54:15.436Z,100785.19
2023-04-30T13:56:43.784Z,100775.53
2023-04-30T13:59:12.473Z,100781.75
2023-04-30T14:01:44.785Z,100777.69
2023-04-30T14:04:14.120Z,100770.81
2023-04-30T14:06:42.580Z,100776.94
2023-04-30T14:09:11.787Z,100783.00
2023-04-30T14:11:45.986Z,100775.13
2023-04-30T14:14:15.613Z,100777.25
2023-04-30T14:16:45.826Z,100773.16
2023-04-30T14:19:15.408Z,100767.88
2023-04-30T14:21:44.117Z,100774.56
2023-04-30T14:24:12.570Z,100764.09
2023-04-30T14:26:42.001Z,100763.38
2023-04-30T14:29:10.350Z,100771.31
2023-04-30T14:31:39.079Z,100766.53
2023-04-30T14:34:08.573Z,100761.09
2023-04-30T14:36:40.218Z,100756.06
2023-04-30T14:39:08.864Z,100752.69
2023-04-30T14:41:38.495Z,100745.72
2023-04-30T14:44:06.949Z,100732.09
2023-04-30T14:46:35.203Z,100738.13
2023-04-30T14:49:04.608Z,100739.69
2023-04-30T14:51:36.566Z,100735.91
2023-04-30T14:54:06.144Z,100743.41
2023-04-30T14:56:35.019Z,100736.72
2023-04-30T14:59:03.316Z,100729.47
2023-04-30T15:01:32.471Z,100735.59
2023-04-30T15:04:02.453Z,100726.84
2023-04-30T15:06:32.402Z,100722.47
2023-04-30T15:09:02.745Z,100723.94
2023-04-30T15:11:32.611Z,100719.03
2023-04-30T15:14:01.059Z,100718.97
2023-04-30T15:16:29.783Z,100712.47
2023-04-30T15:18:58.558Z,100715.91
2023-04-30T15:21:28.911Z,100715.31
2023-04-30T15:23:57.165Z,100712.56
2023-04-30T15:26:27.730Z,100708.31
2023-04-30T15:28:56.715Z,100708.00
2023-04-30T15:31:26.787Z,100700.38
2023-04-30T15:33:55.118Z,100699.91
2023-04-30T15:36:25.325Z,100703.09
2023-04-30T15:38:53.362Z,100708.31
2023-04-30T15:41:24.091Z,100715.09
2023-04-30T15:43:53.602Z,100709.56
2023-04-30T15:46:21.542Z,100709.94
2023-04-30T15:48:49.779Z,100707.94
2023-04-30T15:51:18.321Z,100709.91
2023-04-30T15:53:46.812Z,100704.91
2023-04-30T15:56:15.491Z,100692.94
2023-04-30T15:58:45.403Z,100701.34
2023-04-30T16:01:15.056Z,100693.00
2023-04-30T16:03:43.438Z,100687.97
2023-04-30T16:06:11.943Z,100688.13
2023-04-30T16:08:41.386Z,100679.84
2023-04-30T16:11:11.071Z,100676.72
2023-04-30T16:13:39.450Z,100677.50
2023-04-30T16:16:09.877Z,100668.91
2023-04-30T16:18:39.380Z,100668.16
2023-04-30T16:21:09.418Z,100660.16
2023-04-30T16:23:38.737Z,100667.19
2023-04-30T16:26:07.392Z,100664.59
2023-04-30T16:28:35.905Z,100655.34
2023-04-30T16:31:04.652Z,100655.56
2023-04-30T16:33:32.730Z,100658.97
2023-04-30T16:36:02.384Z,100655.91
2023-04-30T16:38:32.879Z,100653.84
2023-04-30T16:41:01.175Z,100647.50
2023-04-30T16:43:30.354Z,100644.69
2023-04-30T16:45:58.703Z,100651.75
2023-04-30T16:48:27.281Z,100644.91
2023-04-30T16:50:55.390Z,100638.31
2023-04-30T16:53:25.340Z,100649.09
2023-04-30T16:55:53.794Z,100654.47
2023-04-30T16:58:22.186Z,100639.56
2023-04-30T17:00:55.776Z,100639.56
2023-04-30T17:03:24.695Z,100632.13
2023-04-30T17:05:55.823Z,100636.03
2023-04-30T17:08:25.852Z,100634.41
2023-04-30T17:10:54.020Z,100632.97
2023-04-30T17:13:24.011Z,100630.78
2023-04-30T17:15:54.677Z,100629.06
2023-04-30T17:18:23.399Z,100625.66
2023-04-30T17:20:52.655Z,100626.25
2023-04-30T17:23:21.143Z,100621.47
2023-04-30T17:25:51.069Z,100628.31
2023-04-30T17:28:19.461Z,100625.66
2023-04-30T17:30:47.682Z,100625.75
2023-04-30T17:33:15.813Z,100627.34
2023-04-30T17:35:44.260Z,100629.66
2023-04-30T17:38:12.362Z,100631.72
2023-04-30T17:40:41.990Z,100634.38
2023-04-30T17:43:17.154Z,100629.22
2023-04-30T17:45:45.545Z,100625.38
2023-04-30T17:48:19.274Z,100620.84
2023-04-30T17:50:50.496Z,100629.47
2023-04-30T17:53:19.752Z,100635.91
2023-04-30T17:55:47.996Z,100631.28
2023-04-30T17:58:20.532Z,100631.22
2023-04-30T18:00:48.880Z,100633.72
2023-04-30T18:03:19.636Z,100629.78
2023-04-30T18:05:51.039Z,100626.47
2023-04-30T18:08:19.698Z,100627.59
2023-04-30T18:10:57.879Z,100626.75
2023-04-30T18:13:31.138Z,100635.88
2023-04-30T18:16:00.530Z,100629.03
2023-04-30T18:18:28.879Z,100628.19
2023-04-30T18:20:57.754Z,100628.38
2023-04-30T18:23:26.769Z,100634.16
2023-04-30T18:25:55.639Z,100634.19
2023-04-30T18:28:30.959Z,100634.81
2023-04-30T18:31:03.474Z,100634.50
2023-04-30T18:33:37.881Z,100625.81
2023-04-30T18:36:07.783Z,100633.91
2023-04-30T18:38:38.775Z,100631.97
2023-04-30T18:41:07.450Z,100625.50
2023-04-30T18:43:43.095Z,100623.13
2023-04-30T18:46:16.669Z,100626.47
2023-04-30T18:48:45.412Z,100629.34
2023-04-30T18:51:19.766Z,100636.53
2023-04-30T18:53:49.660Z,100633.97
2023-04-30T18:56:20.193Z,100633.59
2023-04-30T18:58:57.625Z,100640.63
2023-04-30T19:01:31.858Z,100636.91
2023-04-30T19:04:04.448Z,100637.50
2023-04-30T19:06:36.817Z,100634.91
2023-04-30T19:09:06.746Z,100636.72
2023-04-30T19:11:38.085Z,100637.81
2023-04-30T19:14:08.774Z,100641.31
2023-04-30T19:16:47.042Z,100643.84
2023-04-30T19:19:17.897Z,100641.16
2023-04-30T19:21:50.047Z,100642.81
2023-04-30T19:24:21.134Z,100642.13
2023-04-30T19:26:51.871Z,100639.44
2023-04-30T19:29:24.787Z,100651.06
2023-04-30T19:31:59.642Z,100646.56
2023-04-30T19:34:31.133Z,100653.16
2023-04-30T19:37:00.618Z,100648.81
2023-04-30T19:39:45.433Z,100658.88
2023-04-30T19:42:19.082Z,100662.34
2023-04-30T19:44:48.249Z,100665.38
2023-04-30T19:47:18.439Z,100655.94
2023-04-30T19:49:47.700Z,100666.59
2023-04-30T19:52:15.986Z,100664.00
2023-04-30T19:54:57.111Z,100664.06
2023-04-30T19:57:34.814Z,100657.59
2023-04-30T20:00:09.991Z,100667.31
2023-04-30T20:02:53.979Z,100661.59
2023-04-30T20:05:28.452Z,100651.78
2023-04-30T20:07:58.356Z,100655.34
2023-04-30T20:10:38.379Z,100651.63
2023-04-30T20:13:09.142Z,100652.03
2023-04-30T20:15:39.517Z,100654.28
2023-04-30T20:18:09.424Z,100650.72
2023-04-30T20:20:38.062Z,100656.81
2023-04-30T20:23:18.268Z,100655.31
2023-04-30T20:25:52.176Z,100651.63
2023-04-30T20:28:25.716Z,100648.84
2023-04-30T20:30:55.728Z,100641.47
2023-04-30T20:33:26.568Z,100641.34
2023-04-30T20:35:58.731Z,100648.41
2023-04-30T20:38:27.350Z,100651.00
2023-04-30T20:40:58.008Z,100645.81
2023-04-30T20:43:28.651Z,100646.75
2023-04-30T20:45:59.047Z,100646.00
2023-04-30T20:48:28.940Z,100644.47
2023-04-30T20:51:00.017Z,100637.22
2023-04-30T20:53:28.500Z,100646.88
2023-04-30T20:56:00.272Z,100642.97
2023-04-30T20:58:28.753Z,100636.81
2023-04-30T21:00:57.057Z,100637.34
2023-04-30T21:03:25.723Z,100635.13
2023-04-30T21:05:57.491Z,100638.50
2023-04-30T21:08:26.536Z,100641.06
2023-04-30T21:10:57.545Z,100639.75
2023-04-30T21:13:27.082Z,100643.78
2023-04-30T21:15:56.458Z,100641.69
2023-04-30T21:18:26.547Z,100640.03
2023-04-30T21:21:03.214Z,100639.25
2023-04-30T21:23:32.662Z,100635.50
2023-04-30T21:26:01.438Z,100627.34
2023-04-30T21:28:29.590Z,100633.88
2023-04-30T21:30:58.321Z,100630.34
2023-04-30T21:33:28.151Z,100622.91
2023-04-30T21:35:58.091Z,100620.13
2023-04-30T21:38:26.275Z,100622.16
2023-04-30T21:40:55.008Z,100628.28
2023-04-30T21:43:23.950Z,100619.59
2023-04-30T21:46:00.682Z,100620.75
2023-04-30T21:48:28.813Z,100618.41
2023-04-30T21:51:03.233Z,100621.22
2023-04-30T21:53:31.472Z,100623.50
2023-04-30T21:56:01.428Z,100614.63
2023-04-30T21:58:31.066Z,100613.19
2023-04-30T22:00:59.103Z,100603.53
2023-04-30T22:03:27.453Z,100603.34
2023-04-30T22:05:55.985Z,100608.00
2023-04-30T22:08:25.583Z,100608.34
2023-04-30T22:10:58.851Z,100602.16
2023-04-30T22:13:30.135Z,100604.75
2023-04-30T22:15:58.438Z,100605.63
2023-04-30T22:18:27.019Z,100602.97
2023-04-30T22:20:55.503Z,100606.31
2023-04-30T22:23:26.610Z,100599.44
2023-04-30T22:25:56.585Z,100597.63
2023-04-30T22:28:24.702Z,100603.53
2023-04-30T22:30:58.818Z,100601.97
2023-04-30T22:33:28.433Z,100592.28
2023-04-30T22:36:00.220Z,100601.53
2023-04-30T22:38:30.510Z,100593.34
2023-04-30T22:40:59.954Z,100592.47
2023-04-30T22:43:29.177Z,100586.81
2023-04-30T22:45:58.787Z,100592.94
2023-04-30T22:48:28.167Z,100585.34
2023-04-30T22:50:58.137Z,100587.13
2023-04-30T22:53:26.247Z,100581.16
2023-04-30T22:55:56.241Z,100578.47
2023-04-30T22:58:26.921Z,100579.75
2023-04-30T23:00:55.238Z,100582.97
2023-04-30T23:03:23.607Z,100586.50
2023-04-30T23:05:52.099Z,100586.16
2023-04-30T23:08:20.435Z,100586.41
2023-04-30T23:10:50.557Z,100579.38
2023-04-30T23:13:21.924Z,100572.97
2023-04-30T23:15:49.820Z,100582.41
2023-04-30T23:18:19.648Z,100570.41
2023-04-30T23:20:47.709Z,100579.53
2023-04-30T23:23:16.135Z,100579.09
2023-04-30T23:25:44.717Z,100571.41
2023-04-30T23:28:13.340Z,100572.22
2023-04-30T23:30:46.024Z,100573.19
2023-04-30T23:33:14.158Z,100571.75
2023-04-30T23:35:42.790Z,100569.19
2023-04-30T23:38:11.269Z,100560.59
2023-04-30T23:40:39.590Z,100563.03
2023-04-30T23:43:08.065Z,100562.97
2023-04-30T23:45:38.118Z,100557.41
2023-04-30T23:48:07.852Z,100559.88
2023-04-30T23:50:35.891Z,100554.53
2023-04-30T23:53:04.123Z,100556.56
2023-04-30T23:55:32.776Z,100545.78
2023-04-30T23:58:01.467Z,100546.69
